createdAt,value
2023-05-23T00:01:09.223Z,3.13
2023-05-23T00:03:37.542Z,2.63
2023-05-23T00:06:07.188Z,2.80
2023-05-23T00:08:34.775Z,1.53
2023-05-23T00:11:02.297Z,1.30
2023-05-23T00:13:29.766Z,2.20
2023-05-23T00:15:57.415Z,1.73
2023-05-23T00:18:24.875Z,3.03
2023-05-23T00:20:52.382Z,1.87
2023-05-23T00:23:20.896Z,1.23
2023-05-23T00:25:54.218Z,2.67
2023-05-23T00:28:22.053Z,3.53
2023-05-23T00:30:49.769Z,2.57
2023-05-23T00:33:17.876Z,2.20
2023-05-23T00:35:45.420Z,3.53
2023-05-23T00:38:14.481Z,1.77
2023-05-23T00:40:41.943Z,2.97
2023-05-23T00:43:10.128Z,2.13
2023-05-23T00:45:37.791Z,2.30
2023-05-23T00:48:06.989Z,3.80
2023-05-23T00:50:36.177Z,1.50
2023-05-23T00:53:03.631Z,1.87
2023-05-23T00:55:31.479Z,0.87
2023-05-23T00:57:59.171Z,3.73
2023-05-23T01:00:27.082Z,2.40
2023-05-23T01:02:54.968Z,2.93
2023-05-23T01:05:22.901Z,2.10
2023-05-23T01:07:51.685Z,2.93
2023-05-23T01:10:25.582Z,2.83
2023-05-23T01:13:02.124Z,2.60
2023-05-23T01:16:01.927Z,2.20
2023-05-23T01:18:54.634Z,1.17
2023-05-23T01:21:23.880Z,2.30
2023-05-23T01:24:06.217Z,2.63
2023-05-23T01:26:55.331Z,2.50
2023-05-23T01:29:29.816Z,3.50
2023-05-23T01:31:58.656Z,2.57
2023-05-23T01:34:26.084Z,1.60
2023-05-23T01:36:56.889Z,3.13
2023-05-23T01:39:25.132Z,2.13
2023-05-23T01:41:53.714Z,4.10
2023-05-23T01:44:21.706Z,2.57
2023-05-23T01:46:49.594Z,2.50
2023-05-23T01:49:17.977Z,2.77
2023-05-23T01:51:46.053Z,3.00
2023-05-23T01:54:16.919Z,0.73
2023-05-23T01:56:44.508Z,3.27
2023-05-23T01:59:12.867Z,2.20
2023-05-23T02:01:40.820Z,2.20
2023-05-23T02:04:08.397Z,1.20
2023-05-23T02:06:35.838Z,2.97
2023-05-23T02:09:03.896Z,2.53
2023-05-23T02:11:32.375Z,2.40
2023-05-23T02:13:59.778Z,2.30
2023-05-23T02:16:27.241Z,1.20
2023-05-23T02:18:56.502Z,1.70
2023-05-23T02:21:24.934Z,2.73
2023-05-23T02:23:52.348Z,2.30
2023-05-23T02:26:19.834Z,2.20
2023-05-23T02:28:47.259Z,2.13
2023-05-23T02:31:17.256Z,2.03
2023-05-23T02:33:44.892Z,3.23
2023-05-23T02:36:12.341Z,3.23
2023-05-23T02:38:39.943Z,1.40
2023-05-23T02:41:07.466Z,2.97
2023-05-23T02:43:35.115Z,2.77
2023-05-23T02:46:05.516Z,4.17
2023-05-23T02:48:33.746Z,4.17
2023-05-23T02:51:01.238Z,2.53
2023-05-23T02:53:28.748Z,3.40
2023-05-23T02:55:56.209Z,2.80
2023-05-23T02:58:24.093Z,3.50
2023-05-23T03:00:51.536Z,2.50
2023-05-23T03:03:19.220Z,3.53
2023-05-23T03:05:46.796Z,2.63
2023-05-23T03:08:14.163Z,4.73
2023-05-23T03:10:41.626Z,3.60
2023-05-23T03:13:09.059Z,2.33
2023-05-23T03:15:36.828Z,3.97
2023-05-23T03:18:04.748Z,4.47
2023-05-23T03:20:32.482Z,3.90
2023-05-23T03:22:59.845Z,4.33
2023-05-23T03:25:27.335Z,3.03
2023-05-23T03:27:55.956Z,3.57
2023-05-23T03:30:23.401Z,3.90
2023-05-23T03:32:50.865Z,4.93
2023-05-23T03:35:18.287Z,3.97
2023-05-23T03:37:45.838Z,3.70
2023-05-23T03:40:13.324Z,4.10
2023-05-23T03:42:40.950Z,4.87
2023-05-23T03:45:10.422Z,6.17
2023-05-23T03:47:37.839Z,2.60
2023-05-23T03:50:05.953Z,6.27
2023-05-23T03:52:34.105Z,4.50
2023-05-23T03:55:01.517Z,4.90
2023-05-23T03:57:28.892Z,4.40
2023-05-23T03:59:56.888Z,7.90
2023-05-23T04:02:24.455Z,5.33
2023-05-23T04:04:54.065Z,4.47
2023-05-23T04:07:21.535Z,5.67
2023-05-23T04:09:48.924Z,5.77
2023-05-23T04:12:16.392Z,3.43
2023-05-23T04:14:44.230Z,5.40
2023-05-23T04:17:11.935Z,4.00
2023-05-23T04:19:39.700Z,4.97
2023-05-23T04:22:07.217Z,5.17
2023-05-23T04:24:34.898Z,7.10
2023-05-23T04:27:02.282Z,7.83
2023-05-23T04:29:31.773Z,4.57
2023-05-23T04:31:59.718Z,7.00
2023-05-23T04:34:27.271Z,5.30
2023-05-23T04:36:54.783Z,5.37
2023-05-23T04:39:22.637Z,4.23
2023-05-23T04:42:09.979Z,4.57
2023-05-23T04:45:02.318Z,5.30
2023-05-23T04:47:50.221Z,6.73
2023-05-23T04:50:33.254Z,5.80
2023-05-23T04:53:00.781Z,5.87
2023-05-23T04:55:28.497Z,8.23
2023-05-23T04:57:56.365Z,8.20
2023-05-23T05:00:24.290Z,5.27
2023-05-23T05:02:52.016Z,4.43
2023-05-23T05:05:19.441Z,6.70
2023-05-23T05:07:47.344Z,6.60
2023-05-23T05:10:17.792Z,6.10
2023-05-23T05:12:51.449Z,8.77
2023-05-23T05:15:19.715Z,5.43
2023-05-23T05:17:50.692Z,5.10
2023-05-23T05:20:20.107Z,8.97
2023-05-23T05:22:47.531Z,5.80
2023-05-23T05:25:15.198Z,6.60
2023-05-23T05:27:43.648Z,8.33
2023-05-23T05:30:13.762Z,8.53
2023-05-23T05:32:48.456Z,6.87
2023-05-23T05:35:16.892Z,6.20
2023-05-23T05:37:45.847Z,5.10
2023-05-23T05:40:14.003Z,4.63
2023-05-23T05:42:44.183Z,6.33
2023-05-23T05:45:12.024Z,6.73
2023-05-23T05:47:41.866Z,6.90
2023-05-23T05:50:10.666Z,6.20
2023-05-23T05:52:41.362Z,5.80
2023-05-23T05:55:12.399Z,6.00
2023-05-23T05:57:42.998Z,3.83
2023-05-23T06:00:14.790Z,7.43
2023-05-23T06:02:52.237Z,7.33
2023-05-23T06:05:32.749Z,5.60
2023-05-23T06:08:01.554Z,4.90
2023-05-23T06:10:28.990Z,6.57
2023-05-23T06:12:56.373Z,5.07
2023-05-23T06:15:23.768Z,7.43
2023-05-23T06:17:51.645Z,4.90
2023-05-23T06:20:19.225Z,7.33
2023-05-23T06:22:47.842Z,6.03
2023-05-23T06:25:15.443Z,6.57
2023-05-23T06:27:44.876Z,6.40
2023-05-23T06:30:12.944Z,8.13
2023-05-23T06:32:41.414Z,7.90
2023-05-23T06:35:09.429Z,6.60
2023-05-23T06:37:36.881Z,4.60
2023-05-23T06:40:05.571Z,5.33
2023-05-23T06:42:32.969Z,7.53
2023-05-23T06:45:23.503Z,6.43
2023-05-23T06:47:51.176Z,8.43
2023-05-23T06:50:20.155Z,5.07
2023-05-23T06:52:49.967Z,8.70
2023-05-23T06:55:19.585Z,4.77
2023-05-23T06:57:52.037Z,6.80
2023-05-23T07:00:21.320Z,4.50
2023-05-23T07:03:03.460Z,4.63
2023-05-23T07:05:33.327Z,4.23
2023-05-23T07:08:01.107Z,4.33
2023-05-23T07:10:28.554Z,7.27
2023-05-23T07:13:03.139Z,5.77
2023-05-23T07:15:30.826Z,3.80
2023-05-23T07:18:09.548Z,5.47
2023-05-23T07:20:37.122Z,5.43
2023-05-23T07:23:12.429Z,5.00
2023-05-23T07:25:53.891Z,5.00
2023-05-23T07:28:30.305Z,5.13
2023-05-23T07:30:58.707Z,4.43
2023-05-23T07:33:26.491Z,3.60
2023-05-23T07:36:00.551Z,4.93
2023-05-23T07:38:27.967Z,3.70
2023-05-23T07:41:03.131Z,3.50
2023-05-23T07:43:38.765Z,3.93
2023-05-23T07:46:06.764Z,3.77
2023-05-23T07:48:34.308Z,3.00
2023-05-23T07:51:01.774Z,4.90
2023-05-23T07:53:29.635Z,4.70
2023-05-23T07:55:58.247Z,4.10
2023-05-23T07:58:29.142Z,5.20
2023-05-23T08:00:58.016Z,4.87
2023-05-23T08:03:45.932Z,5.73
2023-05-23T08:06:20.661Z,3.70
2023-05-23T08:08:48.634Z,3.37
2023-05-23T08:11:16.528Z,4.53
2023-05-23T08:13:47.997Z,5.50
2023-05-23T08:16:35.445Z,5.63
2023-05-23T08:19:03.448Z,4.53
2023-05-23T08:21:31.998Z,2.80
2023-05-23T08:24:00.523Z,3.80
2023-05-23T08:26:34.684Z,4.40
2023-05-23T08:29:03.911Z,2.13
2023-05-23T08:31:35.075Z,3.43
2023-05-23T08:34:04.630Z,4.70
2023-05-23T08:36:34.272Z,3.07
2023-05-23T08:39:02.118Z,3.43
2023-05-23T08:41:32.661Z,1.30
2023-05-23T08:44:04.138Z,2.60
2023-05-23T08:46:44.792Z,3.40
2023-05-23T08:49:14.410Z,2.20
2023-05-23T08:51:44.223Z,3.80
2023-05-23T08:54:18.882Z,2.00
2023-05-23T08:56:46.486Z,2.80
2023-05-23T08:59:14.026Z,2.40
2023-05-23T09:01:42.613Z,2.00
2023-05-23T09:04:13.105Z,2.60
2023-05-23T09:06:49.163Z,2.80
2023-05-23T09:09:17.377Z,2.50
2023-05-23T09:11:46.102Z,2.90
2023-05-23T09:14:15.486Z,2.43
2023-05-23T09:16:47.975Z,2.47
2023-05-23T09:19:17.832Z,2.93
2023-05-23T09:21:52.046Z,1.73
2023-05-23T09:24:23.237Z,2.60
2023-05-23T09:26:50.855Z,2.20
2023-05-23T09:29:21.642Z,2.73
2023-05-23T09:31:49.431Z,1.67
2023-05-23T09:34:16.927Z,1.90
2023-05-23T09:36:45.035Z,1.83
2023-05-23T09:39:13.143Z,2.97
2023-05-23T09:41:41.128Z,2.20
2023-05-23T09:44:11.751Z,3.40
2023-05-23T09:46:39.482Z,1.70
2023-05-23T09:49:18.239Z,2.37
2023-05-23T09:51:58.680Z,3.30
2023-05-23T09:54:26.153Z,2.37
2023-05-23T09:56:57.030Z,2.00
2023-05-23T09:59:24.739Z,2.70
2023-05-23T10:01:53.356Z,1.77
2023-05-23T10:04:25.500Z,2.23
2023-05-23T10:06:58.521Z,2.30
2023-05-23T10:09:27.037Z,2.43
2023-05-23T10:12:19.293Z,2.20
2023-05-23T10:14:52.528Z,1.30
2023-05-23T10:17:22.628Z,1.47
2023-05-23T10:20:04.834Z,2.50
2023-05-23T10:22:33.721Z,1.90
2023-05-23T10:25:01.195Z,2.20
2023-05-23T10:27:28.705Z,2.20
2023-05-23T10:29:56.384Z,2.23
2023-05-23T10:32:25.109Z,3.33
2023-05-23T10:34:55.593Z,2.60
2023-05-23T10:38:02.993Z,3.10
2023-05-23T10:40:48.528Z,1.87
2023-05-23T10:43:20.927Z,2.10
2023-05-23T10:45:50.688Z,2.37
2023-05-23T10:48:22.982Z,1.77
2023-05-23T10:51:06.284Z,2.47
2023-05-23T10:53:39.156Z,1.93
2023-05-23T10:56:10.515Z,1.87
2023-05-23T10:58:39.804Z,2.30
2023-05-23T11:01:09.618Z,2.23
2023-05-23T11:03:46.073Z,2.63
2023-05-23T11:06:28.951Z,3.00
2023-05-23T11:09:08.388Z,1.90
2023-05-23T11:11:58.009Z,1.83
2023-05-23T11:14:48.508Z,1.90
2023-05-23T11:17:17.697Z,2.20
2023-05-23T11:20:08.703Z,1.03
2023-05-23T11:22:36.438Z,1.27
2023-05-23T11:25:10.483Z,1.67
2023-05-23T11:27:39.581Z,2.10
2023-05-23T11:30:13.647Z,2.30
2023-05-23T11:32:42.373Z,1.23
2023-05-23T11:35:11.381Z,1.60
2023-05-23T11:37:39.609Z,2.10
2023-05-23T11:40:27.029Z,0.93
2023-05-23T11:42:55.265Z,1.00
2023-05-23T11:45:27.856Z,1.67
2023-05-23T11:47:55.961Z,1.53
2023-05-23T11:50:24.508Z,0.90
2023-05-23T11:52:52.287Z,1.87
2023-05-23T11:55:24.028Z,0.90
2023-05-23T11:57:52.164Z,1.20
2023-05-23T12:00:20.570Z,1.70
2023-05-23T12:02:49.313Z,1.60
2023-05-23T12:05:17.324Z,1.50
2023-05-23T12:07:49.524Z,1.60
2023-05-23T12:10:18.047Z,1.77
2023-05-23T12:12:45.918Z,1.67
2023-05-23T12:15:15.275Z,1.33
2023-05-23T12:17:46.665Z,1.77
2023-05-23T12:20:14.301Z,1.57
2023-05-23T12:22:42.675Z,1.23
2023-05-23T12:25:11.470Z,2.10
2023-05-23T12:27:41.781Z,1.87
2023-05-23T12:30:11.608Z,1.63
2023-05-23T12:32:41.432Z,1.60
2023-05-23T12:35:13.515Z,1.97
2023-05-23T12:37:45.872Z,2.03
2023-05-23T12:40:17.296Z,1.30
2023-05-23T12:42:55.164Z,0.70
2023-05-23T12:45:33.121Z,1.53
2023-05-23T12:48:01.029Z,1.03
2023-05-23T12:50:28.539Z,1.47
2023-05-23T12:52:56.052Z,1.00
2023-05-23T12:55:23.525Z,1.23
2023-05-23T12:57:51.308Z,1.37
2023-05-23T13:00:19.643Z,1.20
2023-05-23T13:02:47.103Z,1.60
2023-05-23T13:05:14.720Z,1.10
2023-05-23T13:07:42.440Z,1.87
2023-05-23T13:10:10.321Z,1.47
2023-05-23T13:12:38.546Z,1.60
2023-05-23T13:15:07.051Z,1.03
2023-05-23T13:17:35.106Z,1.00
2023-05-23T13:20:05.373Z,1.83
2023-05-23T13:22:33.422Z,1.60
2023-05-23T13:25:00.853Z,0.90
2023-05-23T13:27:28.353Z,0.93
2023-05-23T13:29:56.065Z,0.73
2023-05-23T13:32:24.078Z,0.97
2023-05-23T13:34:51.888Z,0.93
2023-05-23T13:37:19.773Z,0.90
2023-05-23T13:39:47.499Z,0.90
2023-05-23T13:42:15.161Z,0.80
2023-05-23T13:44:42.975Z,1.10
2023-05-23T13:47:13.287Z,1.30
2023-05-23T13:49:42.164Z,1.60
2023-05-23T13:52:09.718Z,1.17
2023-05-23T13:54:37.418Z,0.70
2023-05-23T13:57:05.546Z,0.70
2023-05-23T13:59:33.097Z,1.00
2023-05-23T14:02:01.198Z,0.90
2023-05-23T14:04:28.749Z,1.00
2023-05-23T14:06:56.118Z,0.67
2023-05-23T14:09:23.612Z,1.87
2023-05-23T14:11:53.750Z,0.80
2023-05-23T14:14:21.161Z,1.27
2023-05-23T14:16:50.599Z,1.20
2023-05-23T14:19:19.096Z,0.90
2023-05-23T14:21:46.592Z,0.60
2023-05-23T14:24:13.981Z,1.20
2023-05-23T14:26:41.433Z,0.80
2023-05-23T14:29:08.918Z,0.77
2023-05-23T14:31:36.665Z,0.60
2023-05-23T14:34:04.244Z,1.17
2023-05-23T14:36:31.849Z,0.60
2023-05-23T14:39:00.961Z,0.70
2023-05-23T14:41:28.923Z,0.80
2023-05-23T14:43:56.409Z,0.70
2023-05-23T14:46:23.912Z,0.80
2023-05-23T14:48:51.292Z,0.80
2023-05-23T14:51:31.036Z,0.50
2023-05-23T14:54:02.486Z,1.00
2023-05-23T14:56:29.864Z,1.07
2023-05-23T14:58:57.537Z,0.57
2023-05-23T15:01:24.997Z,0.93
2023-05-23T15:03:52.557Z,0.90
2023-05-23T15:06:20.056Z,0.80
2023-05-23T15:08:47.507Z,1.10
2023-05-23T15:11:14.928Z,0.77
2023-05-23T15:13:42.296Z,1.47
2023-05-23T15:16:09.769Z,0.83
2023-05-23T15:18:41.247Z,0.90
2023-05-23T15:21:09.474Z,0.80
2023-05-23T15:23:36.879Z,0.60
2023-05-23T15:26:04.281Z,0.90
2023-05-23T15:28:31.663Z,0.70
2023-05-23T15:30:59.639Z,0.53
2023-05-23T15:33:27.284Z,0.87
2023-05-23T15:35:54.962Z,0.77
2023-05-23T15:38:22.384Z,0.63
2023-05-23T15:40:52.635Z,0.80
2023-05-23T15:43:20.256Z,0.80
2023-05-23T15:45:49.424Z,0.80
2023-05-23T15:48:16.926Z,1.10
2023-05-23T15:50:44.586Z,0.70
2023-05-23T15:53:12.137Z,0.80
2023-05-23T15:55:42.041Z,0.90
2023-05-23T15:58:10.712Z,0.90
2023-05-23T16:00:38.216Z,0.90
2023-05-23T16:03:05.849Z,0.83
2023-05-23T16:05:33.309Z,1.10
2023-05-23T16:08:00.772Z,0.80
2023-05-23T16:10:28.197Z,0.97
2023-05-23T16:12:55.621Z,0.60
2023-05-23T16:15:22.989Z,1.10
2023-05-23T16:17:50.484Z,1.10
2023-05-23T16:20:17.933Z,0.80
2023-05-23T16:22:45.992Z,0.87
2023-05-23T16:25:13.494Z,1.00
2023-05-23T16:27:40.938Z,0.90
2023-05-23T16:30:09.686Z,0.67
2023-05-23T16:32:37.194Z,0.70
2023-05-23T16:35:04.754Z,0.57
2023-05-23T16:37:32.178Z,0.70
2023-05-23T16:39:59.674Z,1.10
2023-05-23T16:42:27.088Z,1.00
2023-05-23T16:44:54.637Z,0.60
2023-05-23T16:47:22.013Z,0.67
2023-05-23T16:49:50.122Z,1.17
2023-05-23T16:52:18.421Z,0.67
2023-05-23T16:54:46.269Z,1.30
2023-05-23T16:57:13.700Z,0.80
2023-05-23T16:59:41.596Z,0.70
2023-05-23T17:02:11.469Z,0.90
2023-05-23T17:04:38.948Z,0.60
2023-05-23T17:07:08.573Z,0.90
2023-05-23T17:09:36.621Z,1.23
2023-05-23T17:12:04.158Z,1.13
2023-05-23T17:14:31.911Z,0.70
2023-05-23T17:16:59.335Z,0.73
2023-05-23T17:19:27.046Z,0.50
2023-05-23T17:21:54.551Z,0.53
2023-05-23T17:24:21.915Z,0.73
2023-05-23T17:26:49.460Z,1.13
2023-05-23T17:29:17.429Z,1.33
2023-05-23T17:31:44.956Z,0.80
2023-05-23T17:34:12.768Z,0.60
2023-05-23T17:36:40.306Z,0.70
2023-05-23T17:39:07.781Z,0.90
2023-05-23T17:41:36.424Z,0.77
2023-05-23T17:44:03.993Z,0.70
2023-05-23T17:46:31.506Z,0.50
2023-05-23T17:48:58.939Z,0.60
2023-05-23T17:51:26.325Z,0.70
2023-05-23T17:53:53.915Z,0.80
2023-05-23T17:56:23.509Z,0.70
2023-05-23T17:58:51.659Z,0.50
2023-05-23T18:01:19.699Z,0.77
2023-05-23T18:03:48.789Z,0.40
2023-05-23T18:06:16.587Z,0.53
2023-05-23T18:08:44.049Z,0.53
2023-05-23T18:11:11.770Z,0.90
2023-05-23T18:13:39.203Z,0.60
2023-05-23T18:16:06.870Z,0.60
2023-05-23T18:18:34.660Z,0.70
2023-05-23T18:21:02.274Z,0.60
2023-05-23T18:23:29.730Z,0.77
2023-05-23T18:25:57.724Z,0.40
2023-05-23T18:28:25.179Z,0.93
2023-05-23T18:30:52.533Z,0.60
2023-05-23T18:33:20.337Z,0.50
2023-05-23T18:35:47.841Z,0.50
2023-05-23T18:38:15.428Z,0.50
2023-05-23T18:40:43.011Z,0.60
2023-05-23T18:43:10.696Z,0.40
2023-05-23T18:45:38.166Z,0.57
2023-05-23T18:48:05.944Z,0.50
2023-05-23T18:50:33.925Z,0.70
2023-05-23T18:53:01.365Z,0.50
2023-05-23T18:55:28.801Z,0.83
2023-05-23T18:57:56.285Z,0.50
2023-05-23T19:00:23.690Z,0.60
2023-05-23T19:02:51.238Z,0.70
2023-05-23T19:05:18.634Z,0.77
2023-05-23T19:07:46.138Z,0.50
2023-05-23T19:10:13.568Z,0.60
2023-05-23T19:12:41.011Z,0.40
2023-05-23T19:15:10.206Z,0.87
2023-05-23T19:17:38.169Z,0.50
2023-05-23T19:20:06.291Z,0.50
2023-05-23T19:22:47.030Z,0.50
2023-05-23T19:25:18.381Z,0.60
2023-05-23T19:27:45.839Z,0.40
2023-05-23T19:30:13.503Z,0.60
2023-05-23T19:32:41.245Z,0.63
2023-05-23T19:35:09.025Z,0.80
2023-05-23T19:37:36.465Z,0.57
2023-05-23T19:40:04.475Z,0.93
2023-05-23T19:42:32.104Z,0.50
2023-05-23T19:44:59.525Z,0.63
2023-05-23T19:47:29.557Z,0.60
2023-05-23T19:49:58.348Z,0.70
2023-05-23T19:52:25.929Z,0.67
2023-05-23T19:54:53.490Z,0.50
2023-05-23T19:57:21.024Z,0.50
2023-05-23T19:59:48.462Z,0.40
2023-05-23T20:02:15.859Z,0.50
2023-05-23T20:04:43.787Z,0.50
2023-05-23T20:07:11.253Z,1.07
2023-05-23T20:09:38.731Z,0.87
2023-05-23T20:12:06.486Z,0.83
2023-05-23T20:14:34.385Z,0.90
2023-05-23T20:17:01.847Z,1.10
2023-05-23T20:19:29.389Z,0.60
2023-05-23T20:21:57.209Z,0.70
2023-05-23T20:24:27.675Z,0.63
2023-05-23T20:26:55.172Z,0.70
2023-05-23T20:29:22.593Z,0.90
2023-05-23T20:31:50.192Z,0.50
2023-05-23T20:34:17.702Z,0.50
2023-05-23T20:36:46.046Z,0.50
2023-05-23T20:39:13.533Z,0.60
2023-05-23T20:41:42.154Z,0.60
2023-05-23T20:44:12.291Z,0.70
2023-05-23T20:46:43.611Z,0.73
2023-05-23T20:49:11.171Z,0.87
2023-05-23T20:51:39.173Z,0.67
2023-05-23T20:54:07.318Z,0.70
2023-05-23T20:56:34.789Z,0.90
2023-05-23T20:59:02.465Z,0.53
2023-05-23T21:01:30.521Z,0.83
2023-05-23T21:03:58.163Z,0.60
2023-05-23T21:06:25.627Z,0.70
2023-05-23T21:08:52.996Z,0.40
2023-05-23T21:11:20.918Z,1.00
2023-05-23T21:13:48.345Z,0.50
2023-05-23T21:16:16.001Z,0.70
2023-05-23T21:18:43.474Z,0.70
2023-05-23T21:21:10.969Z,1.37
2023-05-23T21:23:38.394Z,0.70
2023-05-23T21:26:06.170Z,0.60
2023-05-23T21:28:33.619Z,0.70
2023-05-23T21:31:03.293Z,0.63
2023-05-23T21:33:31.014Z,1.10
2023-05-23T21:36:00.699Z,0.73
2023-05-23T21:38:29.598Z,0.60
2023-05-23T21:40:57.067Z,1.10
2023-05-23T21:43:24.517Z,1.07
2023-05-23T21:45:52.115Z,0.50
2023-05-23T21:48:19.543Z,0.67
2023-05-23T21:50:47.059Z,0.90
2023-05-23T21:53:15.047Z,1.27
2023-05-23T21:55:42.546Z,0.70
2023-05-23T21:58:09.989Z,1.30
2023-05-23T22:00:37.560Z,0.60
2023-05-23T22:03:05.868Z,0.70
2023-05-23T22:05:33.334Z,0.60
2023-05-23T22:08:00.868Z,0.83
2023-05-23T22:10:28.418Z,0.80
2023-05-23T22:12:57.036Z,0.83
2023-05-23T22:15:24.378Z,1.20
2023-05-23T22:17:52.629Z,0.80
2023-05-23T22:20:20.300Z,0.80
2023-05-23T22:22:47.692Z,0.70
2023-05-23T22:25:15.162Z,1.00
2023-05-23T22:27:42.625Z,0.70
2023-05-23T22:30:10.531Z,0.73
2023-05-23T22:32:37.947Z,0.87
2023-05-23T22:35:05.804Z,0.77
2023-05-23T22:37:33.319Z,0.63
2023-05-23T22:40:00.969Z,1.00
2023-05-23T22:42:28.447Z,0.73
2023-05-23T22:44:55.922Z,1.67
2023-05-23T22:47:23.845Z,1.27
2023-05-23T22:49:56.401Z,0.60
2023-05-23T22:52:23.878Z,0.77
2023-05-23T22:54:51.778Z,0.40
2023-05-23T22:57:19.133Z,0.80
2023-05-23T22:59:46.652Z,0.70
2023-05-23T23:02:14.206Z,1.60
2023-05-23T23:04:41.686Z,0.67
2023-05-23T23:07:09.051Z,0.77
2023-05-23T23:09:36.516Z,1.10
2023-05-23T23:12:04.207Z,0.80
2023-05-23T23:14:31.580Z,1.73
2023-05-23T23:16:59.522Z,1.13
2023-05-23T23:19:29.683Z,1.07
2023-05-23T23:21:57.061Z,0.50
2023-05-23T23:24:24.479Z,0.70
2023-05-23T23:26:51.881Z,0.60
2023-05-23T23:29:19.282Z,0.90
2023-05-23T23:31:46.782Z,0.70
2023-05-23T23:34:14.510Z,0.90
2023-05-23T23:36:41.971Z,0.90
2023-05-23T23:39:09.375Z,0.60
2023-05-23T23:41:36.746Z,0.90
2023-05-23T23:44:04.294Z,1.00
2023-05-23T23:46:31.860Z,0.87
2023-05-23T23:48:59.481Z,1.47
2023-05-23T23:51:26.877Z,1.00
2023-05-23T23:53:54.304Z,0.70
2023-05-23T23:56:22.771Z,0.90
2023-05-23T23:58:50.593Z,1.17
